Weather at Budapest Liszt Ferenc International Airport

Public forecast

Using degrees Celsius for public forecast. Weather courtesy of forecast.io.

Current aviation weather report (METAR) for Budapest Liszt Ferenc International Airport

Retrieved 2021/08/02 12:30 UTC (18 minutes ago):

LHBP 021230Z 30011KT 270V330 9999 SCT048 25/13 Q1014 NOSIG

Aviation forecast (TAF) for Budapest Liszt Ferenc International Airport

Retrieved 2021/08/02 12:29 UTC (19 minutes ago):

TAF LHBP 021115Z 0212/0312 30009KT CAVOK BECMG 0219/0221 VRB03KT BECMG 0308/0310 SCT040